Time;durP1;ratioP1;P1;durP2;ratioP2;P2;SDS_P1;SDS_P2;PMS_P1;PMS_P2;Temp;Humidity;BMP_temperature;BMP_pressure;BME280_temperature;BME280_humidity;BME280_pressure;Samples;Min_cycle;Max_cycle;Signal;HPM_P1;HPM_P2
2021/05/20 00:00:26;;;;;;;11.27;7.43;;;;;;;;;;5026225;28;20256;-71
2021/05/20 00:02:52;;;;;;;10.37;7.53;;;;;;;;;;5019945;28;20229;-72
2021/05/20 00:05:18;;;;;;;10.10;7.77;;;;;;;;;;5027117;28;20181;-71
2021/05/20 00:07:44;;;;;;;8.03;7.10;;;;;;;;;;5029342;28;20185;-71
2021/05/20 00:10:11;;;;;;;9.67;7.50;;;;;;;;;;5021115;28;20181;-71
2021/05/20 00:12:36;;;;;;;9.00;7.63;;;;;;;;;;5030786;28;20209;-71
2021/05/20 00:15:04;;;;;;;10.30;8.13;;;;;;;;;;5017977;28;20189;-71
2021/05/20 00:17:29;;;;;;;10.83;8.20;;;;;;;;;;5031483;28;20205;-72
2021/05/20 00:19:55;;;;;;;11.53;8.33;;;;;;;;;;5020153;28;20189;-72
2021/05/20 00:22:20;;;;;;;11.17;8.63;;;;;;;;;;5029553;28;20235;-72
2021/05/20 00:24:46;;;;;;;9.77;7.80;;;;;;;;;;5020379;28;20197;-72
2021/05/20 00:27:11;;;;;;;12.27;8.63;;;;;;;;;;5028759;28;20269;-71
2021/05/20 00:29:36;;;;;;;12.00;8.50;;;;;;;;;;5020705;28;20228;-72
2021/05/20 00:32:02;;;;;;;11.73;8.07;;;;;;;;;;5029071;28;20182;-71
2021/05/20 00:34:27;;;;;;;10.73;7.50;;;;;;;;;;5023773;28;20193;-71
2021/05/20 00:36:52;;;;;;;8.53;7.27;;;;;;;;;;5031341;28;20866;-71
2021/05/20 00:39:18;;;;;;;8.77;7.50;;;;;;;;;;5031746;28;20592;-71
2021/05/20 00:41:43;;;;;;;8.77;7.83;;;;;;;;;;5023055;28;20650;-71
2021/05/20 00:44:08;;;;;;;13.10;8.83;;;;;;;;;;5030773;28;20510;-71
2021/05/20 00:46:34;;;;;;;9.60;8.33;;;;;;;;;;5024515;28;20227;-71
2021/05/20 00:48:59;;;;;;;9.57;8.53;;;;;;;;;;5030883;28;20244;-71
2021/05/20 00:51:24;;;;;;;8.93;8.03;;;;;;;;;;5021444;28;20182;-71
2021/05/20 00:53:50;;;;;;;10.73;8.27;;;;;;;;;;5031357;28;20218;-71
2021/05/20 00:56:21;;;;;;;9.03;8.13;;;;;;;;;;5021583;28;20210;-71
2021/05/20 00:58:48;;;;;;;9.53;8.50;;;;;;;;;;5030663;28;20201;-71
2021/05/20 01:01:13;;;;;;;11.30;8.57;;;;;;;;;;5022185;28;20272;-71
2021/05/20 01:03:40;;;;;;;9.53;7.90;;;;;;;;;;5032393;28;20201;-71
2021/05/20 01:06:05;;;;;;;9.83;8.30;;;;;;;;;;5020214;28;20203;-71
2021/05/20 01:08:31;;;;;;;14.63;8.50;;;;;;;;;;5028994;28;20194;-71
2021/05/20 01:10:58;;;;;;;9.67;8.53;;;;;;;;;;5029484;28;20288;-71
2021/05/20 01:13:23;;;;;;;10.77;8.57;;;;;;;;;;5020473;28;20277;-71
2021/05/20 01:15:49;;;;;;;10.60;9.50;;;;;;;;;;5026970;28;20921;-71
2021/05/20 01:18:14;;;;;;;10.40;9.30;;;;;;;;;;5024233;28;20646;-71
2021/05/20 01:20:41;;;;;;;12.57;10.37;;;;;;;;;;5031927;28;20271;-71
2021/05/20 01:23:09;;;;;;;12.67;9.70;;;;;;;;;;5020188;28;20684;-71
2021/05/20 01:25:36;;;;;;;15.03;10.90;;;;;;;;;;5029074;28;20288;-71
2021/05/20 01:28:04;;;;;;;12.50;9.93;;;;;;;;;;5020399;28;20198;-71
2021/05/20 01:30:35;;;;;;;11.47;9.97;;;;;;;;;;5028799;28;20537;-71
2021/05/20 01:33:01;;;;;;;14.67;10.77;;;;;;;;;;5021413;28;20193;-71
2021/05/20 01:35:26;;;;;;;11.00;9.80;;;;;;;;;;5027422;28;20686;-71
2021/05/20 01:38:11;;;;;;;14.83;10.27;;;;;;;;;;5022686;28;20197;-71
2021/05/20 01:40:37;;;;;;;16.23;11.87;;;;;;;;;;5027267;28;20275;-71
2021/05/20 01:43:02;;;;;;;15.87;11.93;;;;;;;;;;5022584;28;20668;-70
2021/05/20 01:45:27;;;;;;;14.73;11.90;;;;;;;;;;5026546;28;20181;-70
2021/05/20 01:47:53;;;;;;;12.87;11.30;;;;;;;;;;5026269;28;20237;-71
2021/05/20 01:50:21;;;;;;;13.87;11.80;;;;;;;;;;5020897;28;20209;-71
2021/05/20 01:52:46;;;;;;;14.30;12.33;;;;;;;;;;5027742;28;20190;-71
2021/05/20 01:55:12;;;;;;;16.77;12.50;;;;;;;;;;5018957;28;20471;-70
2021/05/20 01:57:37;;;;;;;15.07;13.27;;;;;;;;;;5026982;28;20280;-70
2021/05/20 02:00:03;;;;;;;14.70;12.63;;;;;;;;;;5022824;28;20189;-70
2021/05/20 02:02:29;;;;;;;16.17;13.30;;;;;;;;;;5029371;28;20289;-70
2021/05/20 02:04:54;;;;;;;15.67;13.40;;;;;;;;;;5021434;28;20276;-70
2021/05/20 02:07:19;;;;;;;14.17;12.67;;;;;;;;;;5029736;28;20190;-70
2021/05/20 02:09:45;;;;;;;18.47;14.10;;;;;;;;;;5021357;28;20209;-70
2021/05/20 02:12:10;;;;;;;17.17;13.03;;;;;;;;;;5028035;28;20296;-71
2021/05/20 02:14:36;;;;;;;16.90;12.63;;;;;;;;;;5020208;28;20198;-71
2021/05/20 02:17:01;;;;;;;16.53;13.80;;;;;;;;;;5025956;28;20214;-71
2021/05/20 02:19:27;;;;;;;18.67;15.37;;;;;;;;;;5028167;28;20228;-71
2021/05/20 02:21:52;;;;;;;20.40;15.20;;;;;;;;;;5020126;28;20206;-71
2021/05/20 02:24:17;;;;;;;21.23;16.33;;;;;;;;;;5028065;28;21400;-71
2021/05/20 02:26:43;;;;;;;21.40;16.80;;;;;;;;;;5020793;28;20218;-72
2021/05/20 02:29:08;;;;;;;17.97;14.40;;;;;;;;;;5025903;28;20651;-70
2021/05/20 02:31:33;;;;;;;17.40;14.70;;;;;;;;;;5018104;28;20251;-70
2021/05/20 02:33:59;;;;;;;18.10;14.20;;;;;;;;;;5026313;28;20209;-70
2021/05/20 02:36:24;;;;;;;21.70;15.80;;;;;;;;;;5022286;28;20236;-70
2021/05/20 02:38:50;;;;;;;22.90;16.13;;;;;;;;;;5024687;28;20228;-70
2021/05/20 02:41:15;;;;;;;24.20;17.50;;;;;;;;;;5019113;28;20589;-70
2021/05/20 02:43:40;;;;;;;24.93;17.60;;;;;;;;;;5026299;28;20236;-70
2021/05/20 02:46:06;;;;;;;22.50;16.60;;;;;;;;;;5028001;28;20292;-70
2021/05/20 02:48:31;;;;;;;25.77;17.90;;;;;;;;;;5018054;28;20233;-71
2021/05/20 02:50:56;;;;;;;23.10;17.77;;;;;;;;;;5026563;28;20216;-71
2021/05/20 02:53:22;;;;;;;22.83;17.83;;;;;;;;;;5017824;28;20597;-71
2021/05/20 02:55:47;;;;;;;26.00;19.17;;;;;;;;;;5027529;28;20206;-71
2021/05/20 02:58:16;;;;;;;24.60;18.43;;;;;;;;;;5018509;28;20209;-71
2021/05/20 03:00:42;;;;;;;23.57;18.27;;;;;;;;;;5024997;28;20194;-71
2021/05/20 03:03:07;;;;;;;27.10;18.47;;;;;;;;;;5016885;28;20220;-71
2021/05/20 03:05:33;;;;;;;24.80;18.50;;;;;;;;;;5025184;28;23158;-71
2021/05/20 03:07:58;;;;;;;25.77;18.90;;;;;;;;;;5018269;28;20548;-71
2021/05/20 03:10:25;;;;;;;24.50;19.10;;;;;;;;;;5027984;28;20258;-71
2021/05/20 03:12:50;;;;;;;31.67;19.57;;;;;;;;;;5017510;28;20224;-71
2021/05/20 03:15:16;;;;;;;29.47;21.03;;;;;;;;;;5026102;28;20189;-70
2021/05/20 03:17:41;;;;;;;26.90;18.47;;;;;;;;;;5026269;28;20193;-70
2021/05/20 03:20:07;;;;;;;29.70;19.57;;;;;;;;;;5016421;28;20203;-70
2021/05/20 03:22:33;;;;;;;29.23;20.67;;;;;;;;;;5028306;28;20201;-71
2021/05/20 03:24:59;;;;;;;33.17;21.30;;;;;;;;;;5018499;28;20661;-70
2021/05/20 03:27:24;;;;;;;29.77;21.33;;;;;;;;;;5024822;28;20508;-70
2021/05/20 03:29:50;;;;;;;33.77;22.43;;;;;;;;;;5020503;28;20197;-71
2021/05/20 03:32:15;;;;;;;36.17;23.50;;;;;;;;;;5024347;28;20185;-70
2021/05/20 03:34:40;;;;;;;35.67;23.57;;;;;;;;;;5017672;28;20213;-70
2021/05/20 03:37:06;;;;;;;38.20;23.83;;;;;;;;;;5025789;28;20893;-70
2021/05/20 03:39:32;;;;;;;34.77;22.67;;;;;;;;;;5016538;28;20197;-70
2021/05/20 03:41:57;;;;;;;38.40;24.60;;;;;;;;;;5023959;28;20205;-70
2021/05/20 03:44:23;;;;;;;36.53;23.93;;;;;;;;;;5018322;28;20190;-71
2021/05/20 03:46:48;;;;;;;34.03;23.20;;;;;;;;;;5025458;28;20559;-71
2021/05/20 03:49:14;;;;;;;36.17;23.33;;;;;;;;;;5023980;28;20693;-71
2021/05/20 03:51:39;;;;;;;35.10;23.80;;;;;;;;;;5017366;28;20938;-71
2021/05/20 03:54:05;;;;;;;37.13;23.37;;;;;;;;;;5025986;28;20186;-70
2021/05/20 03:56:31;;;;;;;41.37;25.57;;;;;;;;;;5013753;28;20221;-70
2021/05/20 03:58:56;;;;;;;48.83;29.83;;;;;;;;;;5026105;28;20193;-70
2021/05/20 04:01:21;;;;;;;50.80;29.70;;;;;;;;;;5018355;28;20686;-70
2021/05/20 04:03:47;;;;;;;54.20;31.23;;;;;;;;;;5025589;28;20194;-70
2021/05/20 04:06:12;;;;;;;71.37;29.60;;;;;;;;;;5017853;28;20189;-70
2021/05/20 04:08:37;;;;;;;214.17;39.13;;;;;;;;;;5031055;28;20249;-70
2021/05/20 04:11:03;;;;;;;125.80;38.00;;;;;;;;;;5022613;28;20238;-72
2021/05/20 04:13:37;;;;;;;198.07;36.90;;;;;;;;;;5029263;28;20208;-70
2021/05/20 04:16:04;;;;;;;217.07;39.27;;;;;;;;;;5023096;28;20882;-69
2021/05/20 04:18:30;;;;;;;230.13;40.60;;;;;;;;;;5031660;28;20216;-69
2021/05/20 04:20:56;;;;;;;178.10;37.97;;;;;;;;;;5031768;28;20645;-69
2021/05/20 04:23:22;;;;;;;141.23;35.55;;;;;;;;;;5020868;28;20186;-69
2021/05/20 04:25:48;;;;;;;148.23;35.10;;;;;;;;;;5031060;28;20188;-69
2021/05/20 04:28:14;;;;;;;220.55;37.15;;;;;;;;;;5021690;28;20641;-69
2021/05/20 04:30:40;;;;;;;150.52;35.38;;;;;;;;;;5030930;28;20568;-69
2021/05/20 04:33:06;;;;;;;128.20;35.08;;;;;;;;;;5019849;28;20291;-69
2021/05/20 04:35:32;;;;;;;149.70;35.20;;;;;;;;;;5031348;28;20198;-69
2021/05/20 04:37:57;;;;;;;286.30;42.88;;;;;;;;;;5018945;28;20220;-69
2021/05/20 04:40:23;;;;;;;202.75;39.33;;;;;;;;;;5030317;28;20216;-69
2021/05/20 04:42:48;;;;;;;274.48;43.15;;;;;;;;;;5017428;28;20190;-69
2021/05/20 04:45:14;;;;;;;200.13;39.42;;;;;;;;;;5030080;28;21042;-70
2021/05/20 04:47:40;;;;;;;256.48;44.05;;;;;;;;;;5022061;28;20222;-69
2021/05/20 04:50:06;;;;;;;144.67;38.93;;;;;;;;;;5022786;28;20554;-69
2021/05/20 04:52:31;;;;;;;183.47;39.30;;;;;;;;;;5025964;28;20189;-69
2021/05/20 04:54:56;;;;;;;173.57;38.05;;;;;;;;;;5019558;28;20534;-69
2021/05/20 04:57:22;;;;;;;107.25;35.33;;;;;;;;;;5027514;28;20217;-70
2021/05/20 04:59:47;;;;;;;108.67;34.20;;;;;;;;;;5020912;28;20190;-70
2021/05/20 05:02:12;;;;;;;100.93;32.87;;;;;;;;;;5029631;28;20212;-70
2021/05/20 05:04:38;;;;;;;121.83;32.33;;;;;;;;;;4323237;28;10000835;-69
2021/05/20 05:07:03;;;;;;;120.13;32.15;;;;;;;;;;5022211;28;20611;-70
2021/05/20 05:09:29;;;;;;;151.88;33.58;;;;;;;;;;5017710;28;20192;-69
2021/05/20 05:11:54;;;;;;;174.00;34.25;;;;;;;;;;5022390;28;20557;-70
2021/05/20 05:14:19;;;;;;;86.28;31.02;;;;;;;;;;5011741;28;20209;-69
2021/05/20 05:16:45;;;;;;;143.10;33.75;;;;;;;;;;5017635;28;20229;-70
2021/05/20 05:19:10;;;;;;;79.13;31.13;;;;;;;;;;5020110;28;20182;-70
2021/05/20 05:21:35;;;;;;;130.05;32.60;;;;;;;;;;5011770;28;20565;-70
2021/05/20 05:24:00;;;;;;;109.72;30.77;;;;;;;;;;5022698;28;20724;-70
2021/05/20 05:26:27;;;;;;;148.75;34.42;;;;;;;;;;5012752;28;20287;-70
2021/05/20 05:28:53;;;;;;;89.90;30.58;;;;;;;;;;5020574;28;20189;-69
2021/05/20 05:31:22;;;;;;;76.72;30.63;;;;;;;;;;5016266;28;20198;-70
2021/05/20 05:33:47;;;;;;;142.73;33.72;;;;;;;;;;5022329;28;20264;-69
2021/05/20 05:36:13;;;;;;;106.47;32.63;;;;;;;;;;5014285;28;20206;-70
2021/05/20 05:38:38;;;;;;;91.40;30.37;;;;;;;;;;5027918;28;20657;-70
2021/05/20 05:41:04;;;;;;;99.95;32.40;;;;;;;;;;5018059;28;21091;-70
2021/05/20 05:43:29;;;;;;;75.30;30.67;;;;;;;;;;5025324;28;20185;-70
2021/05/20 05:45:55;;;;;;;95.88;33.10;;;;;;;;;;5015394;28;20194;-70
2021/05/20 05:48:20;;;;;;;92.95;32.65;;;;;;;;;;5024853;28;20611;-70
2021/05/20 05:50:47;;;;;;;88.53;31.55;;;;;;;;;;4676862;28;9999600;-70
2021/05/20 05:53:12;;;;;;;90.38;32.95;;;;;;;;;;5013305;28;20190;-70
2021/05/20 05:55:38;;;;;;;74.18;32.30;;;;;;;;;;5022039;28;20707;-70
2021/05/20 05:58:03;;;;;;;80.97;31.90;;;;;;;;;;5015470;28;20733;-69
2021/05/20 06:00:28;;;;;;;87.97;30.65;;;;;;;;;;5019521;28;20185;-69
2021/05/20 06:02:54;;;;;;;134.05;34.63;;;;;;;;;;5011273;28;20240;-69
2021/05/20 06:05:20;;;;;;;94.18;33.55;;;;;;;;;;5019806;28;20218;-69
2021/05/20 06:07:46;;;;;;;100.55;35.88;;;;;;;;;;5012381;28;20741;-69
2021/05/20 06:10:11;;;;;;;100.50;33.97;;;;;;;;;;5024063;28;20198;-69
2021/05/20 06:12:37;;;;;;;98.15;36.22;;;;;;;;;;5015076;28;20984;-69
2021/05/20 06:15:05;;;;;;;99.47;36.53;;;;;;;;;;5025338;28;20264;-69
2021/05/20 06:17:31;;;;;;;117.38;38.58;;;;;;;;;;5017473;28;20384;-69
2021/05/20 06:19:56;;;;;;;138.15;39.38;;;;;;;;;;5024789;28;20189;-70
2021/05/20 06:22:21;;;;;;;89.05;37.15;;;;;;;;;;5025434;28;20285;-69
2021/05/20 06:24:47;;;;;;;100.10;40.22;;;;;;;;;;5018600;28;20200;-70
2021/05/20 06:27:12;;;;;;;95.97;37.85;;;;;;;;;;5018092;28;20205;-70
2021/05/20 06:29:38;;;;;;;82.70;37.60;;;;;;;;;;5018743;28;20193;-69
2021/05/20 06:32:04;;;;;;;145.63;39.30;;;;;;;;;;5016178;28;20361;-68
2021/05/20 06:34:29;;;;;;;84.43;39.28;;;;;;;;;;5016619;28;21931;-69
2021/05/20 06:36:57;;;;;;;68.63;36.60;;;;;;;;;;5024785;28;20221;-69
2021/05/20 06:39:22;;;;;;;68.13;37.38;;;;;;;;;;5016506;28;20190;-69
2021/05/20 06:41:47;;;;;;;97.82;37.15;;;;;;;;;;5023341;28;20201;-69
2021/05/20 06:44:13;;;;;;;61.10;36.08;;;;;;;;;;5015815;28;20288;-70
2021/05/20 06:46:38;;;;;;;68.65;36.10;;;;;;;;;;5023719;28;20184;-70
2021/05/20 06:49:03;;;;;;;61.58;36.70;;;;;;;;;;5024917;28;20229;-69
2021/05/20 06:51:30;;;;;;;60.58;37.60;;;;;;;;;;5017876;28;20185;-69
2021/05/20 06:53:55;;;;;;;56.38;35.90;;;;;;;;;;5024848;28;20196;-69
2021/05/20 06:56:23;;;;;;;61.10;36.20;;;;;;;;;;5015601;28;20194;-69
2021/05/20 07:01:32;;;;;;;55.33;33.97;;;;;;;;;;5013779;28;20248;-69
2021/05/20 07:03:58;;;;;;;59.95;33.00;;;;;;;;;;5026219;28;20649;-68
2021/05/20 07:06:23;;;;;;;61.08;31.60;;;;;;;;;;5015780;28;20218;-68
2021/05/20 07:08:48;;;;;;;50.88;32.42;;;;;;;;;;5025062;28;20189;-69
2021/05/20 07:11:14;;;;;;;64.78;31.88;;;;;;;;;;5017515;28;20228;-69
2021/05/20 07:13:40;;;;;;;53.65;32.00;;;;;;;;;;5022919;28;20182;-69
2021/05/20 07:16:06;;;;;;;54.08;32.50;;;;;;;;;;5014407;28;20217;-69
2021/05/20 07:18:31;;;;;;;51.70;32.65;;;;;;;;;;5025543;28;20204;-70
2021/05/20 07:20:57;;;;;;;55.55;34.70;;;;;;;;;;5016608;28;20225;-70
2021/05/20 07:23:22;;;;;;;52.15;33.55;;;;;;;;;;5025420;28;20545;-69
2021/05/20 07:25:47;;;;;;;53.17;33.15;;;;;;;;;;5025118;28;20551;-69
2021/05/20 07:28:13;;;;;;;49.63;32.05;;;;;;;;;;5016413;28;20215;-69
2021/05/20 07:30:39;;;;;;;53.38;33.30;;;;;;;;;;5024591;28;20792;-69
2021/05/20 07:33:05;;;;;;;52.65;32.63;;;;;;;;;;5019431;28;20198;-70
2021/05/20 07:35:32;;;;;;;50.03;32.03;;;;;;;;;;5026164;28;20205;-70
2021/05/20 07:37:57;;;;;;;45.38;29.92;;;;;;;;;;5019776;28;20498;-68
2021/05/20 07:40:23;;;;;;;54.42;33.97;;;;;;;;;;5028983;28;20189;-70
2021/05/20 07:42:48;;;;;;;56.47;34.60;;;;;;;;;;5022478;28;20196;-70
2021/05/20 07:45:15;;;;;;;52.00;32.00;;;;;;;;;;5032221;28;20194;-70
2021/05/20 07:47:44;;;;;;;57.38;33.67;;;;;;;;;;5025136;28;20260;-68
2021/05/20 07:50:11;;;;;;;44.65;28.58;;;;;;;;;;5029689;28;20194;-68
2021/05/20 07:52:36;;;;;;;53.33;30.70;;;;;;;;;;5025426;28;20177;-68
2021/05/20 07:55:02;;;;;;;47.90;29.63;;;;;;;;;;5030045;28;20221;-69
2021/05/20 07:57:28;;;;;;;47.90;28.55;;;;;;;;;;5030415;28;20238;-69
2021/05/20 07:59:53;;;;;;;49.70;28.90;;;;;;;;;;5021741;28;20217;-68
2021/05/20 08:04:50;;;;;;;48.22;29.25;;;;;;;;;;5023496;28;20194;-69
2021/05/20 08:07:47;;;;;;;47.00;28.10;;;;;;;;;;5030954;28;20273;-68
2021/05/20 08:10:10;;;;;;;47.53;27.58;;;;;;;;;;5024078;28;20205;-69
2021/05/20 08:12:36;;;;;;;49.10;28.70;;;;;;;;;;5028918;28;20185;-70
2021/05/20 08:15:02;;;;;;;42.28;25.50;;;;;;;;;;5020559;28;20541;-68
2021/05/20 08:17:27;;;;;;;44.08;26.60;;;;;;;;;;5033560;28;20626;-69
2021/05/20 08:19:52;;;;;;;44.90;27.20;;;;;;;;;;5023642;28;20194;-69
2021/05/20 08:22:18;;;;;;;44.08;25.98;;;;;;;;;;5031530;28;20201;-68
2021/05/20 08:24:43;;;;;;;43.13;25.77;;;;;;;;;;5023241;28;20193;-69
2021/05/20 08:27:11;;;;;;;42.13;26.35;;;;;;;;;;5030403;28;20200;-69
2021/05/20 08:29:40;;;;;;;39.72;25.38;;;;;;;;;;5024844;28;20321;-68
2021/05/20 08:32:06;;;;;;;36.03;23.90;;;;;;;;;;5029540;28;20680;-69
2021/05/20 08:34:32;;;;;;;32.85;22.90;;;;;;;;;;5032041;28;20225;-69
2021/05/20 08:36:57;;;;;;;33.60;21.42;;;;;;;;;;5024633;28;20214;-69
2021/05/20 08:39:22;;;;;;;31.35;21.45;;;;;;;;;;5031694;28;20204;-69
2021/05/20 08:41:49;;;;;;;29.80;20.67;;;;;;;;;;5020515;28;20227;-68
2021/05/20 08:44:17;;;;;;;31.50;22.60;;;;;;;;;;5028106;28;20243;-70
2021/05/20 08:46:43;;;;;;;30.98;21.58;;;;;;;;;;5021150;28;20177;-70
2021/05/20 08:49:16;;;;;;;30.45;21.88;;;;;;;;;;5027752;28;20554;-67
2021/05/20 08:51:43;;;;;;;28.10;21.02;;;;;;;;;;5024480;28;20196;-67
2021/05/20 08:54:08;;;;;;;29.42;21.77;;;;;;;;;;5027383;28;20265;-68
2021/05/20 08:56:33;;;;;;;28.05;20.85;;;;;;;;;;5022589;28;20307;-68
2021/05/20 08:58:59;;;;;;;27.15;20.05;;;;;;;;;;5030674;28;20288;-68
2021/05/20 09:01:39;;;;;;;27.63;19.33;;;;;;;;;;5022332;28;20207;-68
2021/05/20 09:04:06;;;;;;;29.02;20.05;;;;;;;;;;5027302;28;20193;-69
2021/05/20 09:06:43;;;;;;;25.98;17.98;;;;;;;;;;5026810;28;20181;-67
2021/05/20 09:09:14;;;;;;;24.92;18.70;;;;;;;;;;5028180;28;20196;-68
2021/05/20 09:11:57;;;;;;;24.15;17.42;;;;;;;;;;5029120;28;20268;-68
2021/05/20 09:14:35;;;;;;;21.23;16.48;;;;;;;;;;5029038;28;20196;-69
2021/05/20 09:17:12;;;;;;;19.73;14.75;;;;;;;;;;5029296;28;20205;-68
2021/05/20 09:19:39;;;;;;;20.17;15.38;;;;;;;;;;5027961;28;20189;-67
2021/05/20 09:22:11;;;;;;;16.92;14.13;;;;;;;;;;5027934;28;20193;-68
2021/05/20 09:24:47;;;;;;;20.60;13.75;;;;;;;;;;5019044;28;20200;-68
2021/05/20 09:27:31;;;;;;;17.60;13.40;;;;;;;;;;5029001;28;20185;-68
2021/05/20 09:30:12;;;;;;;17.25;13.70;;;;;;;;;;5020153;28;20200;-68
2021/05/20 09:32:39;;;;;;;17.60;13.18;;;;;;;;;;5031628;28;20265;-67
2021/05/20 09:35:06;;;;;;;18.23;13.73;;;;;;;;;;5022728;28;20672;-68
2021/05/20 09:37:33;;;;;;;19.23;14.57;;;;;;;;;;5029245;28;20560;-68
2021/05/20 09:40:01;;;;;;;18.38;14.02;;;;;;;;;;5021162;28;20269;-68
2021/05/20 09:42:30;;;;;;;19.85;14.95;;;;;;;;;;5029499;28;20189;-68
2021/05/20 09:45:05;;;;;;;19.80;14.52;;;;;;;;;;5022743;28;20315;-68
2021/05/20 09:47:30;;;;;;;20.80;14.35;;;;;;;;;;5026589;28;20225;-69
2021/05/20 09:50:02;;;;;;;19.65;14.02;;;;;;;;;;5020515;28;20201;-68
2021/05/20 09:52:27;;;;;;;19.52;13.98;;;;;;;;;;5028889;28;20185;-67
2021/05/20 09:54:54;;;;;;;22.60;14.40;;;;;;;;;;5019774;28;20200;-67
2021/05/20 09:57:31;;;;;;;16.95;12.32;;;;;;;;;;5029210;28;20202;-67
2021/05/20 10:00:06;;;;;;;17.73;12.73;;;;;;;;;;5018161;28;20204;-68
2021/05/20 10:02:32;;;;;;;16.60;12.48;;;;;;;;;;5024829;28;20763;-68
2021/05/20 10:04:59;;;;;;;18.30;13.32;;;;;;;;;;5019853;28;20208;-68
2021/05/20 10:07:31;;;;;;;16.70;13.55;;;;;;;;;;5025494;28;20581;-68
2021/05/20 10:09:58;;;;;;;16.55;13.15;;;;;;;;;;5025472;28;20288;-67
2021/05/20 10:12:25;;;;;;;17.17;12.70;;;;;;;;;;5020002;28;20526;-68
2021/05/20 10:14:50;;;;;;;14.05;11.88;;;;;;;;;;5028393;28;20719;-69
2021/05/20 10:17:17;;;;;;;16.02;11.98;;;;;;;;;;5018297;28;20208;-68
2021/05/20 10:19:44;;;;;;;14.68;11.43;;;;;;;;;;5031164;28;20189;-68
2021/05/20 10:22:11;;;;;;;15.02;11.93;;;;;;;;;;5018444;28;20211;-67
2021/05/20 10:24:37;;;;;;;17.52;12.73;;;;;;;;;;5026959;28;20181;-67
2021/05/20 10:27:03;;;;;;;14.75;12.15;;;;;;;;;;5018226;28;20204;-68
2021/05/20 10:29:28;;;;;;;12.68;10.63;;;;;;;;;;5023790;28;20276;-68
2021/05/20 10:31:54;;;;;;;14.57;10.00;;;;;;;;;;5019356;28;20189;-68
2021/05/20 10:34:19;;;;;;;13.00;9.95;;;;;;;;;;5026682;28;20297;-68
2021/05/20 10:37:05;;;;;;;15.30;11.82;;;;;;;;;;5019718;28;21053;-68
2021/05/20 10:39:31;;;;;;;17.15;11.45;;;;;;;;;;5028863;28;20326;-68
2021/05/20 10:41:57;;;;;;;13.77;10.77;;;;;;;;;;5019676;28;20281;-70
2021/05/20 10:44:23;;;;;;;13.40;10.93;;;;;;;;;;5025523;28;20197;-68
2021/05/20 10:46:57;;;;;;;16.27;12.20;;;;;;;;;;5026217;28;20193;-68
2021/05/20 10:50:01;;;;;;;15.18;11.23;;;;;;;;;;5019450;28;20192;-68
2021/05/20 10:52:37;;;;;;;16.58;12.27;;;;;;;;;;5016588;28;20185;-69
2021/05/20 10:55:04;;;;;;;17.63;12.70;;;;;;;;;;5026799;28;20506;-69
2021/05/20 10:57:48;;;;;;;22.17;15.50;;;;;;;;;;5027647;28;20213;-68
2021/05/20 11:00:29;;;;;;;19.55;15.10;;;;;;;;;;5025321;28;20207;-71
2021/05/20 11:02:54;;;;;;;20.10;14.63;;;;;;;;;;5019557;28;20303;-69
2021/05/20 11:05:41;;;;;;;23.08;17.52;;;;;;;;;;5020034;28;20189;-67
2021/05/20 11:08:08;;;;;;;22.70;19.27;;;;;;;;;;5023023;28;20205;-69
2021/05/20 11:10:39;;;;;;;24.02;18.65;;;;;;;;;;5017659;28;20204;-68
2021/05/20 11:13:05;;;;;;;24.95;20.38;;;;;;;;;;5026714;28;20287;-68
2021/05/20 11:15:30;;;;;;;23.27;19.05;;;;;;;;;;5015411;28;20732;-68
2021/05/20 11:18:32;;;;;;;24.77;20.17;;;;;;;;;;5026723;28;20218;-68
2021/05/20 11:20:57;;;;;;;23.00;18.83;;;;;;;;;;5020370;28;20204;-67
2021/05/20 11:23:24;;;;;;;21.95;18.80;;;;;;;;;;5027149;28;20193;-68
2021/05/20 11:25:59;;;;;;;25.67;20.40;;;;;;;;;;5019167;28;20305;-68
2021/05/20 11:28:25;;;;;;;25.80;21.20;;;;;;;;;;5027067;28;20185;-68
2021/05/20 11:30:58;;;;;;;28.08;20.70;;;;;;;;;;5017768;28;20201;-67
2021/05/20 11:33:25;;;;;;;23.80;20.02;;;;;;;;;;5026545;28;20200;-68
2021/05/20 11:38:29;;;;;;;29.98;24.02;;;;;;;;;;5029202;28;20567;-70
2021/05/20 11:40:56;;;;;;;30.60;24.88;;;;;;;;;;5019820;28;20196;-69
2021/05/20 11:43:32;;;;;;;28.98;23.63;;;;;;;;;;5026842;28;20194;-68
2021/05/20 11:45:58;;;;;;;29.35;24.52;;;;;;;;;;5018709;28;20224;-69
2021/05/20 11:48:23;;;;;;;30.00;24.02;;;;;;;;;;5028128;28;20712;-68
2021/05/20 11:50:53;;;;;;;28.08;22.98;;;;;;;;;;5018800;28;20199;-68
2021/05/20 11:53:18;;;;;;;30.63;24.77;;;;;;;;;;5025560;28;20300;-69
2021/05/20 11:55:46;;;;;;;31.10;24.40;;;;;;;;;;5021650;28;20697;-69
2021/05/20 11:58:14;;;;;;;29.42;23.88;;;;;;;;;;5025635;28;20194;-68
2021/05/20 12:00:39;;;;;;;28.90;22.60;;;;;;;;;;5028084;28;20692;-70
2021/05/20 12:03:05;;;;;;;26.35;20.85;;;;;;;;;;5018878;28;20229;-69
2021/05/20 12:05:30;;;;;;;25.13;20.05;;;;;;;;;;5025639;28;20186;-69
2021/05/20 12:07:55;;;;;;;29.52;23.60;;;;;;;;;;5016757;28;20244;-70
2021/05/20 12:10:23;;;;;;;37.10;27.33;;;;;;;;;;5027041;28;20282;-68
2021/05/20 12:12:59;;;;;;;31.73;25.50;;;;;;;;;;5018286;28;20656;-68
2021/05/20 12:15:26;;;;;;;31.10;22.83;;;;;;;;;;5026554;28;20190;-68
2021/05/20 12:17:56;;;;;;;25.92;21.50;;;;;;;;;;5019457;28;20209;-68
2021/05/20 12:20:21;;;;;;;33.03;21.73;;;;;;;;;;5024607;28;20205;-68
2021/05/20 12:22:48;;;;;;;26.08;19.63;;;;;;;;;;5016885;28;20197;-68
2021/05/20 12:25:15;;;;;;;26.23;18.48;;;;;;;;;;5025166;28;20201;-69
2021/05/20 12:27:45;;;;;;;24.85;18.48;;;;;;;;;;5021081;28;20321;-70
2021/05/20 12:30:16;;;;;;;27.63;19.17;;;;;;;;;;5030107;28;20188;-69
2021/05/20 12:32:44;;;;;;;25.55;19.55;;;;;;;;;;5025971;28;20746;-69
2021/05/20 12:35:26;;;;;;;28.45;19.48;;;;;;;;;;5025557;28;20652;-68
2021/05/20 12:38:04;;;;;;;23.42;17.48;;;;;;;;;;5028951;28;20314;-68
2021/05/20 12:40:35;;;;;;;26.48;17.60;;;;;;;;;;5027954;28;20612;-69
2021/05/20 12:43:02;;;;;;;25.17;18.27;;;;;;;;;;5029617;28;20202;-68
2021/05/20 12:45:29;;;;;;;25.90;19.20;;;;;;;;;;5019768;28;20196;-68
2021/05/20 12:47:55;;;;;;;25.35;18.98;;;;;;;;;;5029564;28;20245;-68
2021/05/20 12:50:33;;;;;;;23.55;17.35;;;;;;;;;;5018264;28;20228;-68
2021/05/20 12:52:59;;;;;;;19.88;14.73;;;;;;;;;;5028203;28;20201;-69
2021/05/20 12:55:37;;;;;;;25.35;17.98;;;;;;;;;;5020692;28;20189;-70
2021/05/20 12:58:04;;;;;;;28.73;17.95;;;;;;;;;;5029320;28;20312;-68
2021/05/20 13:00:50;;;;;;;25.70;17.55;;;;;;;;;;5019362;28;20235;-70
2021/05/20 13:03:16;;;;;;;23.88;16.55;;;;;;;;;;5021180;28;20280;-69
2021/05/20 13:05:46;;;;;;;23.23;15.75;;;;;;;;;;5023915;28;20319;-68
2021/05/20 13:08:25;;;;;;;23.55;16.52;;;;;;;;;;5030620;28;20196;-68
2021/05/20 13:10:51;;;;;;;23.08;17.27;;;;;;;;;;5020669;28;20211;-68
2021/05/20 13:13:36;;;;;;;23.38;16.63;;;;;;;;;;5031431;28;20197;-68
2021/05/20 13:16:26;;;;;;;22.73;15.32;;;;;;;;;;5018398;28;20210;-68
2021/05/20 13:19:32;;;;;;;25.77;17.40;;;;;;;;;;5028066;28;20489;-69
2021/05/20 13:25:11;;;;;;;25.65;16.67;;;;;;;;;;5029144;28;20194;-68
2021/05/20 13:27:37;;;;;;;22.65;16.25;;;;;;;;;;5019921;28;20193;-68
2021/05/20 13:30:11;;;;;;;23.75;15.77;;;;;;;;;;5026843;28;20196;-69
2021/05/20 13:32:50;;;;;;;23.83;14.80;;;;;;;;;;5021927;28;20207;-67
2021/05/20 13:35:16;;;;;;;20.45;14.40;;;;;;;;;;5027186;28;20209;-70
2021/05/20 13:37:41;;;;;;;21.05;14.60;;;;;;;;;;5016180;28;20304;-67
2021/05/20 13:40:17;;;;;;;20.58;13.77;;;;;;;;;;5028140;28;20645;-68
2021/05/20 13:42:43;;;;;;;18.38;12.65;;;;;;;;;;5015221;28;20258;-70
2021/05/20 13:45:09;;;;;;;19.70;12.52;;;;;;;;;;5026347;28;20654;-69
2021/05/20 13:47:34;;;;;;;19.73;12.20;;;;;;;;;;5020509;28;20797;-70
2021/05/20 13:50:00;;;;;;;18.30;12.02;;;;;;;;;;5024805;28;20667;-68
2021/05/20 13:52:29;;;;;;;17.65;12.25;;;;;;;;;;5016158;28;20182;-70
2021/05/20 13:54:55;;;;;;;20.48;12.05;;;;;;;;;;5028327;28;20182;-69
2021/05/20 13:57:21;;;;;;;17.27;11.38;;;;;;;;;;5015783;28;20224;-68
2021/05/20 13:59:47;;;;;;;19.10;12.20;;;;;;;;;;5024021;28;20276;-68
2021/05/20 14:02:17;;;;;;;18.05;12.70;;;;;;;;;;5028307;28;20260;-69
2021/05/20 14:04:42;;;;;;;19.98;12.80;;;;;;;;;;5024123;28;20210;-69
2021/05/20 14:07:10;;;;;;;18.15;12.77;;;;;;;;;;5027336;28;20261;-69
2021/05/20 14:09:36;;;;;;;19.45;13.23;;;;;;;;;;5017405;28;20189;-68
2021/05/20 14:12:03;;;;;;;20.90;13.77;;;;;;;;;;5026760;28;20177;-68
2021/05/20 14:14:29;;;;;;;24.50;14.35;;;;;;;;;;5019327;28;20208;-70
2021/05/20 14:16:55;;;;;;;20.52;14.10;;;;;;;;;;5026541;28;20303;-70
2021/05/20 14:19:20;;;;;;;25.45;15.35;;;;;;;;;;5018264;28;20225;-69
2021/05/20 14:21:46;;;;;;;21.10;14.52;;;;;;;;;;5027613;28;20226;-69
2021/05/20 14:24:12;;;;;;;23.73;15.90;;;;;;;;;;5019061;28;20193;-69
2021/05/20 14:26:38;;;;;;;21.02;14.75;;;;;;;;;;5030350;28;20766;-69
2021/05/20 14:29:03;;;;;;;23.55;16.40;;;;;;;;;;5019118;28;20190;-69